sensor_id;sensor_type;location;lat;lon;timestamp;pressure;altitude;pressure_sealevel;temperature;humidity
22241;BME280;11289;52.524;13.694;2022-07-11T00:01:29;101325.78;;;15.83;55.67
22241;BME280;11289;52.524;13.694;2022-07-11T00:03:54;101317.81;;;15.73;55.91
22241;BME280;11289;52.524;13.694;2022-07-11T00:06:19;101319.69;;;15.69;56.06
22241;BME280;11289;52.524;13.694;2022-07-11T00:08:45;101326.22;;;15.73;56.07
22241;BME280;11289;52.524;13.694;2022-07-11T00:11:10;101313.16;;;15.65;56.34
22241;BME280;11289;52.524;13.694;2022-07-11T00:13:37;101317.09;;;15.64;56.66
22241;BME280;11289;52.524;13.694;2022-07-11T00:16:02;101317.34;;;15.59;56.66
22241;BME280;11289;52.524;13.694;2022-07-11T00:18:27;101311.75;;;15.59;56.93
22241;BME280;11289;52.524;13.694;2022-07-11T00:20:53;101326.19;;;15.61;56.75
22241;BME280;11289;52.524;13.694;2022-07-11T00:23:18;101325.03;;;15.62;56.90
22241;BME280;11289;52.524;13.694;2022-07-11T00:25:44;101322.13;;;15.58;57.01
22241;BME280;11289;52.524;13.694;2022-07-11T00:28:09;101327.38;;;15.60;57.45
22241;BME280;11289;52.524;13.694;2022-07-11T00:30:34;101322.47;;;15.57;57.83
22241;BME280;11289;52.524;13.694;2022-07-11T00:33:00;101304.97;;;15.47;57.70
22241;BME280;11289;52.524;13.694;2022-07-11T00:35:25;101321.41;;;15.37;58.19
22241;BME280;11289;52.524;13.694;2022-07-11T00:37:51;101316.59;;;15.37;58.15
22241;BME280;11289;52.524;13.694;2022-07-11T00:40:16;101319.63;;;15.32;58.12
22241;BME280;11289;52.524;13.694;2022-07-11T00:42:42;101319.63;;;15.32;58.60
22241;BME280;11289;52.524;13.694;2022-07-11T00:45:08;101315.19;;;15.31;58.57
22241;BME280;11289;52.524;13.694;2022-07-11T00:47:33;101312.75;;;15.29;58.77
22241;BME280;11289;52.524;13.694;2022-07-11T00:49:59;101309.59;;;15.31;59.09
22241;BME280;11289;52.524;13.694;2022-07-11T00:52:24;101312.16;;;15.24;59.05
22241;BME280;11289;52.524;13.694;2022-07-11T00:54:50;101301.88;;;15.15;58.97
22241;BME280;11289;52.524;13.694;2022-07-11T00:57:16;101310.41;;;15.19;59.20
22241;BME280;11289;52.524;13.694;2022-07-11T00:59:41;101318.78;;;15.19;59.32
22241;BME280;11289;52.524;13.694;2022-07-11T01:02:07;101325.19;;;15.20;59.15
22241;BME280;11289;52.524;13.694;2022-07-11T01:04:32;101326.00;;;15.20;59.46
22241;BME280;11289;52.524;13.694;2022-07-11T01:06:58;101322.59;;;15.14;59.69
22241;BME280;11289;52.524;13.694;2022-07-11T01:09:23;101317.69;;;15.11;59.71
22241;BME280;11289;52.524;13.694;2022-07-11T01:11:48;101321.19;;;15.08;59.78
22241;BME280;11289;52.524;13.694;2022-07-11T01:14:14;101298.78;;;14.96;59.67
22241;BME280;11289;52.524;13.694;2022-07-11T01:16:40;101313.22;;;14.98;59.78
22241;BME280;11289;52.524;13.694;2022-07-11T01:19:05;101305.41;;;14.91;60.10
22241;BME280;11289;52.524;13.694;2022-07-11T01:21:33;101320.31;;;14.95;60.20
22241;BME280;11289;52.524;13.694;2022-07-11T01:24:01;101318.44;;;14.87;60.16
22241;BME280;11289;52.524;13.694;2022-07-11T01:26:28;101329.75;;;14.91;60.37
22241;BME280;11289;52.524;13.694;2022-07-11T01:28:54;101326.25;;;14.94;60.35
22241;BME280;11289;52.524;13.694;2022-07-11T01:31:24;101328.59;;;14.92;60.26
22241;BME280;11289;52.524;13.694;2022-07-11T01:33:51;101334.72;;;14.85;60.51
22241;BME280;11289;52.524;13.694;2022-07-11T01:36:17;101321.09;;;14.84;60.96
22241;BME280;11289;52.524;13.694;2022-07-11T01:38:43;101329.81;;;14.82;60.61
22241;BME280;11289;52.524;13.694;2022-07-11T01:41:09;101328.53;;;14.79;60.47
22241;BME280;11289;52.524;13.694;2022-07-11T01:43:34;101328.59;;;14.71;61.09
22241;BME280;11289;52.524;13.694;2022-07-11T01:46:00;101317.66;;;14.66;60.80
22241;BME280;11289;52.524;13.694;2022-07-11T01:48:25;101319.94;;;14.63;61.21
22241;BME280;11289;52.524;13.694;2022-07-11T01:50:51;101327.19;;;14.65;60.93
22241;BME280;11289;52.524;13.694;2022-07-11T01:53:17;101326.72;;;14.62;61.23
22241;BME280;11289;52.524;13.694;2022-07-11T01:55:42;101321.44;;;14.61;61.31
22241;BME280;11289;52.524;13.694;2022-07-11T01:58:08;101316.06;;;14.56;61.20
22241;BME280;11289;52.524;13.694;2022-07-11T02:00:34;101314.06;;;14.56;61.32
22241;BME280;11289;52.524;13.694;2022-07-11T02:02:59;101323.28;;;14.57;61.54
22241;BME280;11289;52.524;13.694;2022-07-11T02:05:25;101323.47;;;14.52;61.81
22241;BME280;11289;52.524;13.694;2022-07-11T02:07:50;101326.75;;;14.54;61.91
22241;BME280;11289;52.524;13.694;2022-07-11T02:10:34;101317.94;;;14.43;61.92
22241;BME280;11289;52.524;13.694;2022-07-11T02:13:00;101321.56;;;14.43;62.26
22241;BME280;11289;52.524;13.694;2022-07-11T02:15:26;101323.06;;;14.41;62.14
22241;BME280;11289;52.524;13.694;2022-07-11T02:17:52;101311.28;;;14.35;62.22
22241;BME280;11289;52.524;13.694;2022-07-11T02:20:21;101319.66;;;14.35;62.32
22241;BME280;11289;52.524;13.694;2022-07-11T02:22:47;101324.09;;;14.36;62.43
22241;BME280;11289;52.524;13.694;2022-07-11T02:25:13;101303.22;;;14.13;62.45
22241;BME280;11289;52.524;13.694;2022-07-11T02:27:39;101315.78;;;14.27;62.34
22241;BME280;11289;52.524;13.694;2022-07-11T02:30:05;101313.63;;;14.24;62.54
22241;BME280;11289;52.524;13.694;2022-07-11T02:32:31;101324.63;;;14.30;62.60
22241;BME280;11289;52.524;13.694;2022-07-11T02:34:56;101314.31;;;14.21;62.72
22241;BME280;11289;52.524;13.694;2022-07-11T02:37:22;101320.75;;;14.22;63.17
22241;BME280;11289;52.524;13.694;2022-07-11T02:39:47;101316.50;;;14.16;62.87
22241;BME280;11289;52.524;13.694;2022-07-11T02:42:13;101319.50;;;14.10;63.00
22241;BME280;11289;52.524;13.694;2022-07-11T02:44:39;101320.16;;;14.07;63.46
22241;BME280;11289;52.524;13.694;2022-07-11T02:47:04;101316.19;;;14.08;63.47
22241;BME280;11289;52.524;13.694;2022-07-11T02:49:30;101314.94;;;14.06;63.44
22241;BME280;11289;52.524;13.694;2022-07-11T02:51:58;101326.91;;;14.06;63.71
22241;BME280;11289;52.524;13.694;2022-07-11T02:54:24;101319.38;;;13.98;64.00
22241;BME280;11289;52.524;13.694;2022-07-11T02:56:49;101314.47;;;13.95;64.11
22241;BME280;11289;52.524;13.694;2022-07-11T02:59:15;101342.22;;;14.00;63.58
22241;BME280;11289;52.524;13.694;2022-07-11T03:01:40;101328.59;;;13.99;63.53
22241;BME280;11289;52.524;13.694;2022-07-11T03:04:07;101327.75;;;13.98;63.58
22241;BME280;11289;52.524;13.694;2022-07-11T03:06:33;101339.44;;;14.00;63.53
22241;BME280;11289;52.524;13.694;2022-07-11T03:08:58;101329.75;;;13.98;63.38
22241;BME280;11289;52.524;13.694;2022-07-11T03:11:24;101339.25;;;13.97;63.47
22241;BME280;11289;52.524;13.694;2022-07-11T03:13:49;101334.69;;;13.92;63.76
22241;BME280;11289;52.524;13.694;2022-07-11T03:16:15;101338.59;;;14.00;63.83
22241;BME280;11289;52.524;13.694;2022-07-11T03:18:40;101331.56;;;13.93;63.78
22241;BME280;11289;52.524;13.694;2022-07-11T03:21:05;101340.75;;;13.94;63.72
22241;BME280;11289;52.524;13.694;2022-07-11T03:23:31;101329.78;;;13.89;63.74
22241;BME280;11289;52.524;13.694;2022-07-11T03:25:56;101324.59;;;13.79;64.06
22241;BME280;11289;52.524;13.694;2022-07-11T03:28:21;101334.91;;;13.87;63.88
22241;BME280;11289;52.524;13.694;2022-07-11T03:30:47;101318.84;;;13.75;63.99
22241;BME280;11289;52.524;13.694;2022-07-11T03:33:12;101346.06;;;13.87;64.05
22241;BME280;11289;52.524;13.694;2022-07-11T03:35:37;101338.22;;;13.80;64.29
22241;BME280;11289;52.524;13.694;2022-07-11T03:38:06;101353.94;;;13.85;64.46
22241;BME280;11289;52.524;13.694;2022-07-11T03:40:32;101344.13;;;13.79;64.12
22241;BME280;11289;52.524;13.694;2022-07-11T03:42:57;101350.53;;;13.79;64.42
22241;BME280;11289;52.524;13.694;2022-07-11T03:45:23;101341.38;;;13.70;64.92
22241;BME280;11289;52.524;13.694;2022-07-11T03:47:48;101321.22;;;13.64;64.62
22241;BME280;11289;52.524;13.694;2022-07-11T03:50:14;101334.16;;;13.69;64.54
22241;BME280;11289;52.524;13.694;2022-07-11T03:52:40;101329.06;;;13.62;64.66
22241;BME280;11289;52.524;13.694;2022-07-11T03:55:05;101334.47;;;13.67;65.07
22241;BME280;11289;52.524;13.694;2022-07-11T03:57:32;101338.09;;;13.68;64.81
22241;BME280;11289;52.524;13.694;2022-07-11T03:59:59;101330.38;;;13.65;65.13
22241;BME280;11289;52.524;13.694;2022-07-11T04:02:24;101336.81;;;13.65;65.26
22241;BME280;11289;52.524;13.694;2022-07-11T04:04:49;101329.56;;;13.64;65.30
22241;BME280;11289;52.524;13.694;2022-07-11T04:07:15;101331.22;;;13.65;65.08
22241;BME280;11289;52.524;13.694;2022-07-11T04:09:40;101327.25;;;13.66;65.48
22241;BME280;11289;52.524;13.694;2022-07-11T04:12:06;101334.66;;;13.71;65.46
22241;BME280;11289;52.524;13.694;2022-07-11T04:14:31;101333.00;;;13.70;65.69
22241;BME280;11289;52.524;13.694;2022-07-11T04:16:57;101337.56;;;13.74;65.44
22241;BME280;11289;52.524;13.694;2022-07-11T04:19:22;101323.31;;;13.67;65.30
22241;BME280;11289;52.524;13.694;2022-07-11T04:21:49;101346.06;;;13.78;65.15
22241;BME280;11289;52.524;13.694;2022-07-11T04:24:14;101333.63;;;13.75;65.11
22241;BME280;11289;52.524;13.694;2022-07-11T04:26:39;101340.66;;;13.82;65.16
22241;BME280;11289;52.524;13.694;2022-07-11T04:29:05;101346.38;;;13.85;64.79
22241;BME280;11289;52.524;13.694;2022-07-11T04:31:31;101335.41;;;13.80;65.21
22241;BME280;11289;52.524;13.694;2022-07-11T04:33:56;101349.34;;;13.89;64.83
22241;BME280;11289;52.524;13.694;2022-07-11T04:36:22;101329.19;;;13.74;65.07
22241;BME280;11289;52.524;13.694;2022-07-11T04:38:47;101353.94;;;13.85;65.25
22241;BME280;11289;52.524;13.694;2022-07-11T04:41:14;101345.44;;;13.81;65.31
22241;BME280;11289;52.524;13.694;2022-07-11T04:43:40;101341.47;;;13.82;65.64
22241;BME280;11289;52.524;13.694;2022-07-11T04:46:05;101344.91;;;13.88;64.99
22241;BME280;11289;52.524;13.694;2022-07-11T04:48:31;101341.44;;;13.91;65.29
22241;BME280;11289;52.524;13.694;2022-07-11T04:50:57;101338.78;;;13.95;65.47
22241;BME280;11289;52.524;13.694;2022-07-11T04:53:23;101331.13;;;14.13;65.37
22241;BME280;11289;52.524;13.694;2022-07-11T04:55:48;101346.41;;;14.87;64.13
22241;BME280;11289;52.524;13.694;2022-07-11T04:58:14;101341.25;;;15.10;62.48
22241;BME280;11289;52.524;13.694;2022-07-11T05:00:39;101345.94;;;15.19;62.03
22241;BME280;11289;52.524;13.694;2022-07-11T05:03:05;101348.19;;;15.38;61.78
22241;BME280;11289;52.524;13.694;2022-07-11T05:05:30;101342.13;;;15.36;61.20
22241;BME280;11289;52.524;13.694;2022-07-11T05:07:56;101347.59;;;15.32;61.64
22241;BME280;11289;52.524;13.694;2022-07-11T05:10:21;101355.97;;;15.65;60.70
22241;BME280;11289;52.524;13.694;2022-07-11T05:12:47;101357.03;;;15.86;60.03
22241;BME280;11289;52.524;13.694;2022-07-11T05:15:12;101357.16;;;15.89;60.07
22241;BME280;11289;52.524;13.694;2022-07-11T05:17:37;101362.19;;;15.83;60.04
22241;BME280;11289;52.524;13.694;2022-07-11T05:20:04;101365.63;;;15.68;60.32
22241;BME280;11289;52.524;13.694;2022-07-11T05:22:30;101359.06;;;15.52;60.68
22241;BME280;11289;52.524;13.694;2022-07-11T05:24:55;101360.13;;;15.47;61.10
22241;BME280;11289;52.524;13.694;2022-07-11T05:27:20;101363.28;;;15.45;61.38
22241;BME280;11289;52.524;13.694;2022-07-11T05:29:46;101368.25;;;15.40;61.75
22241;BME280;11289;52.524;13.694;2022-07-11T05:32:11;101375.47;;;15.41;61.66
22241;BME280;11289;52.524;13.694;2022-07-11T05:34:37;101368.97;;;15.37;62.43
22241;BME280;11289;52.524;13.694;2022-07-11T05:37:03;101385.59;;;15.33;62.25
22241;BME280;11289;52.524;13.694;2022-07-11T05:39:28;101385.25;;;15.35;62.63
22241;BME280;11289;52.524;13.694;2022-07-11T05:41:54;101367.44;;;15.39;62.56
22241;BME280;11289;52.524;13.694;2022-07-11T05:44:19;101361.81;;;15.39;62.60
22241;BME280;11289;52.524;13.694;2022-07-11T05:46:45;101382.16;;;15.61;62.34
22241;BME280;11289;52.524;13.694;2022-07-11T05:49:11;101374.63;;;15.74;62.21
22241;BME280;11289;52.524;13.694;2022-07-11T05:51:38;101381.56;;;16.26;61.32
22241;BME280;11289;52.524;13.694;2022-07-11T05:54:03;101392.38;;;16.64;60.38
22241;BME280;11289;52.524;13.694;2022-07-11T05:56:29;101388.69;;;16.88;59.47
22241;BME280;11289;52.524;13.694;2022-07-11T05:58:55;101384.88;;;17.09;58.23
22241;BME280;11289;52.524;13.694;2022-07-11T06:01:21;101398.56;;;17.39;57.86
22241;BME280;11289;52.524;13.694;2022-07-11T06:03:47;101387.44;;;17.58;56.94
22241;BME280;11289;52.524;13.694;2022-07-11T06:06:13;101394.16;;;17.86;56.92
22241;BME280;11289;52.524;13.694;2022-07-11T06:08:38;101389.72;;;18.33;56.06
22241;BME280;11289;52.524;13.694;2022-07-11T06:11:07;101394.94;;;18.86;53.74
22241;BME280;11289;52.524;13.694;2022-07-11T06:13:33;101388.19;;;18.71;53.50
22241;BME280;11289;52.524;13.694;2022-07-11T06:15:59;101398.47;;;18.83;53.44
22241;BME280;11289;52.524;13.694;2022-07-11T06:18:24;101390.78;;;18.79;53.02
22241;BME280;11289;52.524;13.694;2022-07-11T06:20:50;101387.25;;;19.02;53.72
22241;BME280;11289;52.524;13.694;2022-07-11T06:23:15;101394.28;;;19.12;52.83
22241;BME280;11289;52.524;13.694;2022-07-11T06:25:41;101390.81;;;19.19;52.79
22241;BME280;11289;52.524;13.694;2022-07-11T06:28:06;101372.63;;;19.36;52.84
22241;BME280;11289;52.524;13.694;2022-07-11T06:30:32;101385.72;;;19.71;51.52
22241;BME280;11289;52.524;13.694;2022-07-11T06:32:58;101391.75;;;20.15;51.04
22241;BME280;11289;52.524;13.694;2022-07-11T06:35:23;101393.03;;;20.45;49.63
22241;BME280;11289;52.524;13.694;2022-07-11T06:37:49;101387.78;;;20.70;49.26
22241;BME280;11289;52.524;13.694;2022-07-11T06:40:15;101393.41;;;20.70;48.77
22241;BME280;11289;52.524;13.694;2022-07-11T06:42:43;101383.19;;;20.62;49.18
22241;BME280;11289;52.524;13.694;2022-07-11T06:45:09;101376.13;;;20.45;49.17
22241;BME280;11289;52.524;13.694;2022-07-11T06:47:35;101400.38;;;20.53;49.33
22241;BME280;11289;52.524;13.694;2022-07-11T06:50:00;101392.84;;;20.34;49.28
22241;BME280;11289;52.524;13.694;2022-07-11T06:52:26;101395.03;;;20.17;49.53
22241;BME280;11289;52.524;13.694;2022-07-11T06:54:51;101395.81;;;19.91;50.06
22241;BME280;11289;52.524;13.694;2022-07-11T06:57:17;101399.03;;;19.93;50.57
22241;BME280;11289;52.524;13.694;2022-07-11T06:59:42;101396.09;;;19.86;50.85
22241;BME280;11289;52.524;13.694;2022-07-11T07:02:07;101405.31;;;19.83;50.91
22241;BME280;11289;52.524;13.694;2022-07-11T07:04:33;101405.31;;;19.83;51.00
22241;BME280;11289;52.524;13.694;2022-07-11T07:06:59;101395.31;;;19.86;50.68
22241;BME280;11289;52.524;13.694;2022-07-11T07:09:25;101395.53;;;20.00;50.69
22241;BME280;11289;52.524;13.694;2022-07-11T07:11:51;101401.47;;;20.18;50.78
22241;BME280;11289;52.524;13.694;2022-07-11T07:14:17;101399.69;;;20.33;50.77
22241;BME280;11289;52.524;13.694;2022-07-11T07:16:42;101407.47;;;20.43;50.14
22241;BME280;11289;52.524;13.694;2022-07-11T07:19:08;101406.97;;;20.61;50.14
22241;BME280;11289;52.524;13.694;2022-07-11T07:21:33;101404.78;;;20.77;49.27
22241;BME280;11289;52.524;13.694;2022-07-11T07:23:59;101413.88;;;20.94;48.70
22241;BME280;11289;52.524;13.694;2022-07-11T07:26:24;101410.75;;;21.02;48.20
22241;BME280;11289;52.524;13.694;2022-07-11T07:28:50;101423.97;;;21.29;49.13
22241;BME280;11289;52.524;13.694;2022-07-11T07:31:15;101417.25;;;21.74;48.12
22241;BME280;11289;52.524;13.694;2022-07-11T07:33:44;101413.13;;;22.09;46.72
22241;BME280;11289;52.524;13.694;2022-07-11T07:36:09;101413.44;;;22.49;46.32
22241;BME280;11289;52.524;13.694;2022-07-11T07:38:37;101391.53;;;22.39;44.47
22241;BME280;11289;52.524;13.694;2022-07-11T07:41:04;101415.06;;;22.47;44.73
22241;BME280;11289;52.524;13.694;2022-07-11T07:43:29;101412.72;;;22.67;45.42
22241;BME280;11289;52.524;13.694;2022-07-11T07:45:57;101410.44;;;22.90;44.69
22241;BME280;11289;52.524;13.694;2022-07-11T07:48:23;101400.75;;;22.99;44.72
22241;BME280;11289;52.524;13.694;2022-07-11T07:50:48;101409.41;;;23.24;44.87
22241;BME280;11289;52.524;13.694;2022-07-11T07:53:14;101419.19;;;23.59;43.64
22241;BME280;11289;52.524;13.694;2022-07-11T07:55:40;101413.13;;;23.64;43.14
22241;BME280;11289;52.524;13.694;2022-07-11T07:58:05;101402.19;;;23.59;42.98
22241;BME280;11289;52.524;13.694;2022-07-11T08:00:31;101424.53;;;24.07;42.71
22241;BME280;11289;52.524;13.694;2022-07-11T08:03:37;101417.22;;;24.13;41.55
22241;BME280;11289;52.524;13.694;2022-07-11T08:06:03;101419.28;;;24.09;42.00
22241;BME280;11289;52.524;13.694;2022-07-11T08:08:30;101411.16;;;24.04;42.07
22241;BME280;11289;52.524;13.694;2022-07-11T08:10:56;101402.28;;;24.09;41.89
22241;BME280;11289;52.524;13.694;2022-07-11T08:13:24;101415.63;;;24.05;41.48
22241;BME280;11289;52.524;13.694;2022-07-11T08:15:50;101417.66;;;24.01;42.31
22241;BME280;11289;52.524;13.694;2022-07-11T08:18:16;101411.16;;;24.29;41.66
22241;BME280;11289;52.524;13.694;2022-07-11T08:20:41;101407.06;;;24.63;41.77
22241;BME280;11289;52.524;13.694;2022-07-11T08:23:06;101417.53;;;24.88;40.94
22241;BME280;11289;52.524;13.694;2022-07-11T08:25:32;101412.72;;;24.70;40.78
22241;BME280;11289;52.524;13.694;2022-07-11T08:27:58;101421.22;;;24.81;40.40
22241;BME280;11289;52.524;13.694;2022-07-11T08:30:23;101411.09;;;24.76;40.19
22241;BME280;11289;52.524;13.694;2022-07-11T08:32:50;101419.19;;;24.85;40.11
22241;BME280;11289;52.524;13.694;2022-07-11T08:35:16;101418.75;;;24.94;39.33
22241;BME280;11289;52.524;13.694;2022-07-11T08:37:41;101414.25;;;25.00;38.47
22241;BME280;11289;52.524;13.694;2022-07-11T08:40:07;101414.13;;;25.32;38.71
22241;BME280;11289;52.524;13.694;2022-07-11T08:42:39;101420.06;;;25.60;38.47
22241;BME280;11289;52.524;13.694;2022-07-11T08:45:05;101419.28;;;25.55;37.48
22241;BME280;11289;52.524;13.694;2022-07-11T08:47:31;101418.38;;;25.66;37.41
22241;BME280;11289;52.524;13.694;2022-07-11T08:49:58;101431.19;;;25.96;37.48
22241;BME280;11289;52.524;13.694;2022-07-11T08:52:24;101426.69;;;26.02;36.35
22241;BME280;11289;52.524;13.694;2022-07-11T08:54:50;101423.44;;;26.03;36.05
22241;BME280;11289;52.524;13.694;2022-07-11T08:57:17;101417.75;;;26.03;35.54
22241;BME280;11289;52.524;13.694;2022-07-11T08:59:46;101419.31;;;26.08;35.73
22241;BME280;11289;52.524;13.694;2022-07-11T09:02:12;101420.31;;;26.36;36.82
22241;BME280;11289;52.524;13.694;2022-07-11T09:04:38;101414.16;;;26.41;34.99
22241;BME280;11289;52.524;13.694;2022-07-11T09:07:03;101416.94;;;26.48;35.65
22241;BME280;11289;52.524;13.694;2022-07-11T09:09:29;101426.72;;;26.85;34.70
22241;BME280;11289;52.524;13.694;2022-07-11T09:11:56;101431.41;;;27.03;34.66
22241;BME280;11289;52.524;13.694;2022-07-11T09:14:30;101410.22;;;27.04;34.16
22241;BME280;11289;52.524;13.694;2022-07-11T09:17:01;101411.94;;;27.28;33.96
22241;BME280;11289;52.524;13.694;2022-07-11T09:19:32;101416.22;;;27.44;32.37
22241;BME280;11289;52.524;13.694;2022-07-11T09:27:47;101413.31;;;27.75;32.07
22241;BME280;11289;52.524;13.694;2022-07-11T09:30:18;101415.25;;;27.82;31.72
22241;BME280;11289;52.524;13.694;2022-07-11T09:33:01;101418.59;;;28.04;31.77
22241;BME280;11289;52.524;13.694;2022-07-11T09:35:36;101414.50;;;28.28;31.41
22241;BME280;11289;52.524;13.694;2022-07-11T09:38:03;101412.97;;;28.00;32.37
22241;BME280;11289;52.524;13.694;2022-07-11T09:40:29;101412.28;;;28.16;30.99
22241;BME280;11289;52.524;13.694;2022-07-11T09:42:56;101413.41;;;27.95;30.83
22241;BME280;11289;52.524;13.694;2022-07-11T09:45:27;101415.72;;;27.18;31.79
22241;BME280;11289;52.524;13.694;2022-07-11T09:47:55;101419.28;;;26.57;32.87
22241;BME280;11289;52.524;13.694;2022-07-11T09:50:24;101409.66;;;26.85;33.43
22241;BME280;11289;52.524;13.694;2022-07-11T09:53:06;101410.75;;;27.26;32.12
22241;BME280;11289;52.524;13.694;2022-07-11T09:55:34;101410.03;;;27.18;32.07
22241;BME280;11289;52.524;13.694;2022-07-11T09:58:03;101407.25;;;26.80;32.37
22241;BME280;11289;52.524;13.694;2022-07-11T10:00:29;101408.63;;;26.68;32.72
22241;BME280;11289;52.524;13.694;2022-07-11T10:02:56;101404.16;;;27.02;32.37
22241;BME280;11289;52.524;13.694;2022-07-11T10:05:23;101396.88;;;27.28;31.83
22241;BME280;11289;52.524;13.694;2022-07-11T10:07:49;101411.50;;;27.30;31.81
22241;BME280;11289;52.524;13.694;2022-07-11T10:10:14;101406.69;;;26.92;31.53
22241;BME280;11289;52.524;13.694;2022-07-11T10:12:40;101420.41;;;26.67;32.76
22241;BME280;11289;52.524;13.694;2022-07-11T10:15:08;101410.72;;;26.61;33.54
22241;BME280;11289;52.524;13.694;2022-07-11T10:25:31;101397.31;;;27.81;30.92
22241;BME280;11289;52.524;13.694;2022-07-11T10:30:47;101400.94;;;28.56;29.82
22241;BME280;11289;52.524;13.694;2022-07-11T10:33:14;101397.88;;;28.23;29.78
22241;BME280;11289;52.524;13.694;2022-07-11T10:35:49;101388.38;;;28.30;28.33
22241;BME280;11289;52.524;13.694;2022-07-11T10:38:15;101389.81;;;28.18;29.50
22241;BME280;11289;52.524;13.694;2022-07-11T10:48:23;101393.06;;;27.42;30.59
22241;BME280;11289;52.524;13.694;2022-07-11T10:50:58;101393.69;;;27.22;30.88
22241;BME280;11289;52.524;13.694;2022-07-11T10:53:32;101392.34;;;27.34;31.60
22241;BME280;11289;52.524;13.694;2022-07-11T10:56:39;101386.66;;;27.85;31.92
22241;BME280;11289;52.524;13.694;2022-07-11T10:59:12;101394.91;;;28.51;30.86
22241;BME280;11289;52.524;13.694;2022-07-11T11:02:02;101393.88;;;29.05;29.25
22241;BME280;11289;52.524;13.694;2022-07-11T11:07:41;101397.94;;;29.60;29.32
22241;BME280;11289;52.524;13.694;2022-07-11T11:10:43;101388.81;;;29.65;27.96
22241;BME280;11289;52.524;13.694;2022-07-11T11:15:49;101392.69;;;29.59;27.90
22241;BME280;11289;52.524;13.694;2022-07-11T11:23:32;101389.94;;;27.84;29.65
22241;BME280;11289;52.524;13.694;2022-07-11T11:26:08;101381.81;;;28.09;29.50
22241;BME280;11289;52.524;13.694;2022-07-11T11:28:34;101384.91;;;28.62;29.67
22241;BME280;11289;52.524;13.694;2022-07-11T11:31:04;101382.34;;;28.68;29.24
22241;BME280;11289;52.524;13.694;2022-07-11T11:33:31;101392.75;;;28.35;29.33
22241;BME280;11289;52.524;13.694;2022-07-11T11:36:09;101389.19;;;28.07;29.89
22241;BME280;11289;52.524;13.694;2022-07-11T11:38:41;101382.25;;;27.80;29.10
22241;BME280;11289;52.524;13.694;2022-07-11T11:41:07;101389.63;;;28.05;30.50
22241;BME280;11289;52.524;13.694;2022-07-11T11:43:36;101385.91;;;28.52;29.93
22241;BME280;11289;52.524;13.694;2022-07-11T11:46:03;101384.69;;;29.13;28.84
22241;BME280;11289;52.524;13.694;2022-07-11T11:48:37;101385.97;;;29.49;28.48
22241;BME280;11289;52.524;13.694;2022-07-11T11:53:29;101389.28;;;30.30;27.23
22241;BME280;11289;52.524;13.694;2022-07-11T11:55:57;101381.41;;;30.34;26.51
22241;BME280;11289;52.524;13.694;2022-07-11T11:58:24;101365.28;;;30.40;26.77
22241;BME280;11289;52.524;13.694;2022-07-11T12:00:54;101385.34;;;30.69;26.58
22241;BME280;11289;52.524;13.694;2022-07-11T12:03:19;101383.00;;;30.35;26.09
22241;BME280;11289;52.524;13.694;2022-07-11T12:05:56;101373.31;;;29.83;26.43
22241;BME280;11289;52.524;13.694;2022-07-11T12:08:28;101389.16;;;29.34;27.18
22241;BME280;11289;52.524;13.694;2022-07-11T12:10:54;101377.72;;;28.54;27.60
22241;BME280;11289;52.524;13.694;2022-07-11T12:13:20;101376.84;;;28.13;27.85
22241;BME280;11289;52.524;13.694;2022-07-11T12:15:45;101369.00;;;27.94;28.23
22241;BME280;11289;52.524;13.694;2022-07-11T12:18:29;101369.53;;;28.12;28.93
22241;BME280;11289;52.524;13.694;2022-07-11T12:20:55;101377.13;;;28.43;29.54
22241;BME280;11289;52.524;13.694;2022-07-11T12:23:21;101361.03;;;28.93;29.08
22241;BME280;11289;52.524;13.694;2022-07-11T12:25:49;101371.94;;;29.38;27.60
22241;BME280;11289;52.524;13.694;2022-07-11T12:28:15;101370.03;;;29.11;28.03
22241;BME280;11289;52.524;13.694;2022-07-11T12:30:40;101368.91;;;28.69;27.93
22241;BME280;11289;52.524;13.694;2022-07-11T12:33:08;101367.47;;;28.37;29.46
22241;BME280;11289;52.524;13.694;2022-07-11T12:35:34;101377.59;;;28.18;29.01
22241;BME280;11289;52.524;13.694;2022-07-11T12:37:59;101368.78;;;27.81;29.34
22241;BME280;11289;52.524;13.694;2022-07-11T12:40:25;101376.03;;;27.62;29.71
22241;BME280;11289;52.524;13.694;2022-07-11T12:42:50;101367.25;;;27.22;29.68
22241;BME280;11289;52.524;13.694;2022-07-11T12:45:16;101363.97;;;26.92;30.27
22241;BME280;11289;52.524;13.694;2022-07-11T12:47:49;101378.97;;;26.97;29.59
22241;BME280;11289;52.524;13.694;2022-07-11T12:50:18;101379.47;;;26.91;30.09
22241;BME280;11289;52.524;13.694;2022-07-11T12:52:46;101368.34;;;27.01;30.43
22241;BME280;11289;52.524;13.694;2022-07-11T12:55:20;101371.06;;;27.42;29.46
22241;BME280;11289;52.524;13.694;2022-07-11T13:00:31;101377.34;;;28.32;29.43
22241;BME280;11289;52.524;13.694;2022-07-11T13:02:57;101373.72;;;28.72;27.60
22241;BME280;11289;52.524;13.694;2022-07-11T13:05:22;101377.03;;;28.90;27.99
22241;BME280;11289;52.524;13.694;2022-07-11T13:07:48;101367.22;;;28.71;26.95
22241;BME280;11289;52.524;13.694;2022-07-11T13:10:32;101378.91;;;28.77;27.56
22241;BME280;11289;52.524;13.694;2022-07-11T13:13:19;101370.38;;;29.33;26.66
22241;BME280;11289;52.524;13.694;2022-07-11T13:15:46;101381.13;;;29.62;26.16
22241;BME280;11289;52.524;13.694;2022-07-11T13:18:13;101371.69;;;29.82;24.99
22241;BME280;11289;52.524;13.694;2022-07-11T13:20:39;101388.28;;;28.57;26.51